Time;durP1;ratioP1;P1;durP2;ratioP2;P2;SDS_P1;SDS_P2;PMS_P1;PMS_P2;Temp;Humidity;BMP_temperature;BMP_pressure;BME280_temperature;BME280_humidity;BME280_pressure;Samples;Min_cycle;Max_cycle;Signal;HPM_P1;HPM_P2
2023/04/05 06:32:35;;;;;;;13.95;8.85;;;2.20;91.10;;;;;;6447524;23;20047;-76
2023/04/05 06:35:37;;;;;;;13.48;8.75;;;2.30;91.10;;;;;;6189521;28;20049;-78
2023/04/05 06:38:38;;;;;;;14.50;8.50;;;2.40;90.90;;;;;;6160938;28;20043;-78
2023/04/05 06:41:40;;;;;;;13.00;8.85;;;2.50;90.50;;;;;;6157381;28;20503;-76
2023/04/05 06:44:42;;;;;;;11.85;8.38;;;2.50;90.30;;;;;;6159270;28;20055;-74
2023/04/05 06:47:45;;;;;;;13.85;8.95;;;2.60;90.10;;;;;;6154550;28;20074;-74
2023/04/05 06:50:47;;;;;;;13.32;8.80;;;2.60;90.00;;;;;;6159848;28;20054;-75
2023/04/05 06:53:49;;;;;;;15.35;9.00;;;2.70;90.10;;;;;;6153759;28;20047;-75
2023/04/05 06:56:51;;;;;;;14.18;9.35;;;2.70;90.00;;;;;;6159794;28;20043;-74
2023/04/05 06:59:54;;;;;;;13.30;8.63;;;2.70;89.70;;;;;;6157061;28;20552;-75
2023/04/05 07:02:57;;;;;;;14.18;8.82;;;2.70;88.50;;;;;;6153299;28;20059;-75
2023/04/05 07:06:00;;;;;;;15.80;8.98;;;2.80;88.70;;;;;;6168911;28;20047;-75
2023/04/05 07:09:02;;;;;;;16.05;9.07;;;2.80;88.50;;;;;;6154006;28;20055;-74
2023/04/05 07:12:06;;;;;;;15.02;9.85;;;2.80;88.80;;;;;;6156835;28;20061;-76
2023/04/05 07:15:09;;;;;;;15.05;9.48;;;2.90;89.50;;;;;;6153735;29;20597;-74
2023/04/05 07:18:14;;;;;;;15.20;9.75;;;3.00;89.40;;;;;;6169961;28;20073;-77
2023/04/05 07:21:16;;;;;;;13.95;8.95;;;3.00;89.70;;;;;;6175173;28;20514;-75
2023/04/05 07:24:18;;;;;;;14.63;9.23;;;3.00;89.20;;;;;;6165753;28;20469;-75
2023/04/05 07:27:20;;;;;;;14.05;9.57;;;2.90;90.00;;;;;;6154103;28;20151;-76
2023/04/05 07:30:22;;;;;;;14.32;9.02;;;3.00;90.20;;;;;;6152769;28;20055;-75
2023/04/05 07:33:26;;;;;;;18.05;8.90;;;3.10;89.10;;;;;;6165580;28;20054;-77
2023/04/05 07:36:29;;;;;;;12.43;8.70;;;3.20;88.40;;;;;;6175543;28;20066;-74
2023/04/05 07:39:31;;;;;;;12.68;8.80;;;3.30;88.00;;;;;;6177143;28;20411;-75
2023/04/05 07:42:33;;;;;;;12.35;8.48;;;3.40;87.60;;;;;;6163499;28;20054;-78
2023/04/05 07:45:35;;;;;;;13.70;9.23;;;3.50;87.90;;;;;;6152571;28;20051;-74
2023/04/05 07:48:38;;;;;;;15.77;9.27;;;3.60;86.90;;;;;;6158272;28;20050;-75
2023/04/05 07:51:42;;;;;;;13.05;8.52;;;3.60;87.50;;;;;;6176422;28;20057;-77
2023/04/05 07:54:44;;;;;;;;;;;3.70;85.90;;;;;;6161500;28;20055;-76
2023/04/05 07:57:46;;;;;;;13.98;8.05;;;3.70;85.40;;;;;;6149571;28;19923;-74
2023/04/05 08:00:48;;;;;;;14.05;8.20;;;3.90;84.80;;;;;;6157264;28;20050;-77
2023/04/05 08:03:51;;;;;;;11.07;7.30;;;3.90;84.50;;;;;;6158896;28;20130;-77
2023/04/05 08:06:53;;;;;;;14.52;7.40;;;4.00;82.50;;;;;;6151878;28;20051;-75
2023/04/05 08:09:56;;;;;;;11.65;7.90;;;4.10;81.60;;;;;;6155639;28;20061;-78
2023/04/05 08:12:58;;;;;;;12.60;8.32;;;4.10;81.20;;;;;;6178962;28;20051;-77
2023/04/05 08:16:00;;;;;;;13.07;8.50;;;4.20;82.80;;;;;;6172491;28;20061;-76
2023/04/05 08:19:03;;;;;;;11.70;7.40;;;4.30;82.20;;;;;;6152579;28;20058;-76
2023/04/05 08:22:05;;;;;;;11.35;7.53;;;4.50;81.70;;;;;;6138106;28;20047;-76
2023/04/05 08:25:09;;;;;;;12.02;7.15;;;4.40;79.90;;;;;;6166713;28;20440;-75
2023/04/05 08:28:11;;;;;;;14.13;7.75;;;4.60;79.60;;;;;;6152025;28;20106;-76
2023/04/05 08:31:13;;;;;;;9.90;7.15;;;4.70;79.30;;;;;;6153716;28;20180;-76
2023/04/05 08:34:16;;;;;;;10.45;7.60;;;4.70;79.30;;;;;;6163158;28;20054;-76
2023/04/05 08:37:18;;;;;;;12.80;7.55;;;4.80;78.40;;;;;;6158313;28;20408;-76
2023/04/05 08:40:21;;;;;;;13.25;7.40;;;5.00;78.30;;;;;;6173809;28;20047;-75
2023/04/05 08:43:31;;;;;;;11.18;6.97;;;5.10;77.90;;;;;;6177993;28;20131;-75
2023/04/05 08:46:35;;;;;;;15.68;7.03;;;5.20;77.70;;;;;;6181420;28;20050;-77
2023/04/05 08:49:42;;;;;;;13.00;7.85;;;5.20;76.20;;;;;;6171578;28;20515;-76
2023/04/05 08:52:48;;;;;;;10.50;7.28;;;5.30;77.30;;;;;;6157928;29;20051;-78
2023/04/05 08:55:55;;;;;;;11.65;6.85;;;5.20;77.00;;;;;;6152929;29;20138;-77
2023/04/05 08:59:02;;;;;;;13.40;7.32;;;5.30;75.40;;;;;;6161052;29;20053;-75
2023/04/05 09:02:12;;;;;;;12.25;7.40;;;5.20;75.30;;;;;;6166612;29;20053;-75
2023/04/05 09:05:19;;;;;;;12.98;6.82;;;5.30;76.60;;;;;;6158418;28;20057;-78
2023/04/05 09:08:22;;;;;;;11.60;7.18;;;5.40;73.70;;;;;;6153621;28;20401;-75
2023/04/05 09:11:24;;;;;;;9.63;6.32;;;5.40;73.50;;;;;;6154667;29;20293;-78
2023/04/05 09:14:27;;;;;;;10.82;6.63;;;5.40;73.00;;;;;;6132303;29;20066;-79
2023/04/05 09:17:31;;;;;;;9.23;5.80;;;5.60;74.50;;;;;;6132408;28;20429;-74
2023/04/05 09:20:34;;;;;;;10.15;6.10;;;5.80;75.90;;;;;;6178190;28;20113;-74
2023/04/05 09:23:37;;;;;;;9.82;6.13;;;5.80;73.60;;;;;;6178249;28;20046;-74
2023/04/05 09:26:38;;;;;;;9.30;5.90;;;5.90;71.80;;;;;;6178815;28;20054;-74
2023/04/05 09:29:43;;;;;;;11.52;5.65;;;6.00;72.10;;;;;;6189064;28;20051;-74
2023/04/05 09:32:47;;;;;;;7.25;3.58;;;6.10;69.20;;;;;;6179240;28;20091;-76
2023/04/05 09:35:51;;;;;;;8.35;4.78;;;6.20;66.30;;;;;;6140622;29;20056;-74
2023/04/05 09:38:53;;;;;;;;;;;6.30;65.60;;;;;;6154471;29;20163;-77
2023/04/05 09:42:09;;;;;;;7.82;4.53;;;6.20;64.30;;;;;;6153521;29;19926;-77
2023/04/05 09:45:11;;;;;;;6.68;4.78;;;6.30;64.50;;;;;;6155735;29;20058;-74
2023/04/05 09:48:13;;;;;;;11.25;5.00;;;6.30;64.20;;;;;;6153709;28;20047;-75
2023/04/05 09:51:18;;;;;;;13.13;5.50;;;6.40;66.20;;;;;;6153972;29;20079;-75
2023/04/05 09:54:20;;;;;;;7.72;5.00;;;6.40;65.10;;;;;;6153628;28;20058;-77
2023/04/05 09:57:25;;;;;;;8.95;5.30;;;6.50;63.60;;;;;;6155738;29;20061;-76
2023/04/05 10:00:27;;;;;;;8.63;4.97;;;6.60;62.90;;;;;;6158220;28;20054;-76
2023/04/05 10:03:30;;;;;;;9.68;5.43;;;6.60;64.20;;;;;;6157082;29;20055;-76
2023/04/05 10:06:38;;;;;;;8.05;5.07;;;6.60;64.80;;;;;;6155778;29;20481;-76
2023/04/05 10:09:41;;;;;;;7.03;4.75;;;6.70;63.70;;;;;;6170210;28;20047;-77
2023/04/05 10:12:44;;;;;;;8.13;4.75;;;6.70;62.30;;;;;;6182530;28;20047;-76
2023/04/05 10:15:50;;;;;;;8.88;5.13;;;6.90;63.10;;;;;;6179701;28;20054;-77
2023/04/05 10:18:53;;;;;;;7.85;4.93;;;7.00;62.90;;;;;;6163838;28;20043;-77
2023/04/05 10:22:00;;;;;;;7.22;4.95;;;7.00;60.70;;;;;;6165917;28;20051;-79
2023/04/05 10:25:11;;;;;;;7.75;4.78;;;7.00;60.10;;;;;;6164817;28;20531;-78
2023/04/05 10:28:31;;;;;;;7.93;4.85;;;7.00;60.80;;;;;;6151443;28;20050;-77
2023/04/05 10:31:42;;;;;;;9.15;4.95;;;7.00;59.90;;;;;;6186145;28;20511;-78
2023/04/05 10:34:54;;;;;;;44.50;17.52;;;7.00;62.20;;;;;;6176776;28;20480;-78
2023/04/05 10:38:13;;;;;;;9.15;5.22;;;7.20;62.60;;;;;;6175104;28;20063;-77
2023/04/05 10:41:16;;;;;;;9.20;5.53;;;7.40;61.60;;;;;;6175318;28;20469;-77
2023/04/05 10:44:18;;;;;;;8.50;4.70;;;7.40;62.00;;;;;;6186805;28;20092;-76
2023/04/05 10:47:23;;;;;;;9.88;5.30;;;7.40;61.30;;;;;;6188879;28;20061;-77
2023/04/05 10:50:26;;;;;;;8.98;5.07;;;7.30;60.30;;;;;;6191326;28;20050;-78
2023/04/05 10:53:31;;;;;;;8.38;5.47;;;7.40;60.10;;;;;;6175016;28;20480;-79
2023/04/05 10:56:33;;;;;;;6.82;5.00;;;7.40;61.10;;;;;;6174926;28;20105;-80
2023/04/05 10:59:41;;;;;;;7.40;5.05;;;7.50;60.40;;;;;;6174408;28;20299;-80
2023/04/05 11:02:43;;;;;;;8.52;5.53;;;7.50;60.30;;;;;;6165739;28;20051;-77
2023/04/05 11:05:46;;;;;;;8.52;5.20;;;7.40;59.30;;;;;;6151108;29;20085;-79
2023/04/05 11:08:53;;;;;;;7.47;5.15;;;7.60;60.90;;;;;;6150400;29;20055;-80
2023/04/05 11:11:55;;;;;;;7.57;5.05;;;7.70;61.40;;;;;;6151196;29;20058;-79
2023/04/05 11:15:31;;;;;;;9.15;5.50;;;7.70;60.20;;;;;;6155359;29;20445;-76
2023/04/05 11:18:33;;;;;;;7.22;4.88;;;7.80;60.10;;;;;;6151459;29;20047;-76
2023/04/05 11:21:34;;;;;;;9.45;5.15;;;7.90;60.20;;;;;;6164472;29;20047;-79
2023/04/05 11:24:53;;;;;;;9.35;5.20;;;8.00;59.20;;;;;;6164605;29;20057;-78
2023/04/05 11:28:01;;;;;;;7.50;4.90;;;8.10;58.40;;;;;;6163776;29;20047;-77
2023/04/05 11:31:14;;;;;;;9.50;4.97;;;8.00;57.60;;;;;;6149998;28;20083;-78
2023/04/05 11:34:24;;;;;;;7.03;4.88;;;8.10;60.40;;;;;;6162668;28;20051;-78
2023/04/05 11:37:54;;;;;;;7.70;5.28;;;8.30;59.80;;;;;;6173435;28;20060;-76
2023/04/05 11:41:12;;;;;;;7.22;4.82;;;8.30;59.40;;;;;;6150403;29;20059;-77
2023/04/05 11:44:15;;;;;;;8.38;5.50;;;8.50;59.10;;;;;;6155310;28;20058;-77
2023/04/05 11:47:20;;;;;;;7.70;5.25;;;8.60;58.20;;;;;;6189653;28;20031;-79
2023/04/05 11:50:23;;;;;;;8.52;5.20;;;8.70;57.30;;;;;;6201340;28;20054;-77
2023/04/05 11:53:24;;;;;;;7.25;4.90;;;8.60;56.30;;;;;;6214561;28;20050;-76
2023/04/05 11:56:28;;;;;;;8.82;5.13;;;8.80;56.60;;;;;;6222936;28;20137;-76
2023/04/05 11:59:32;;;;;;;7.95;5.10;;;8.90;59.20;;;;;;6212835;28;20109;-76
2023/04/05 12:02:35;;;;;;;10.23;5.15;;;9.10;59.30;;;;;;6206175;28;20050;-77
2023/04/05 12:05:58;;;;;;;7.93;5.65;;;9.10;56.90;;;;;;6200930;28;20590;-77
2023/04/05 12:09:00;;;;;;;7.53;4.88;;;9.10;55.30;;;;;;6200957;28;20050;-80
2023/04/05 12:12:05;;;;;;;8.15;5.20;;;9.30;56.70;;;;;;6201149;28;20352;-76
2023/04/05 12:15:10;;;;;;;8.15;5.15;;;9.60;55.00;;;;;;6200311;28;20046;-80
2023/04/05 12:18:15;;;;;;;8.25;4.95;;;9.70;54.50;;;;;;6200724;28;20050;-78
2023/04/05 12:21:17;;;;;;;7.30;4.93;;;9.60;55.20;;;;;;6205185;28;20054;-78
2023/04/05 12:24:19;;;;;;;7.25;5.13;;;9.90;55.00;;;;;;6223404;28;20099;-77
2023/04/05 12:27:22;;;;;;;7.78;4.97;;;10.10;54.40;;;;;;6225439;28;20077;-74
2023/04/05 12:30:24;;;;;;;7.05;4.78;;;10.10;52.90;;;;;;6216444;28;20042;-78
2023/04/05 12:33:28;;;;;;;8.10;4.90;;;10.30;53.80;;;;;;6202833;28;20185;-76
2023/04/05 12:36:31;;;;;;;8.63;5.65;;;10.30;54.20;;;;;;6199961;28;20054;-78
2023/04/05 12:39:33;;;;;;;8.15;4.82;;;10.50;53.50;;;;;;6201931;28;20050;-76
2023/04/05 12:42:38;;;;;;;9.55;5.75;;;10.70;53.90;;;;;;6202935;28;20060;-79
2023/04/05 12:45:40;;;;;;;10.95;6.25;;;10.90;52.20;;;;;;6204957;28;20073;-78
2023/04/05 12:48:43;;;;;;;7.30;5.03;;;10.90;54.40;;;;;;6204931;28;20049;-76
2023/04/05 12:51:46;;;;;;;9.17;5.27;;;11.20;53.50;;;;;;6204339;28;20050;-80
2023/04/05 12:54:54;;;;;;;7.95;5.32;;;11.50;52.30;;;;;;6204353;28;20054;-78
2023/04/05 12:58:00;;;;;;;6.45;4.80;;;11.30;53.10;;;;;;6205166;28;20054;-78
2023/04/05 13:01:03;;;;;;;8.82;5.45;;;11.60;53.40;;;;;;6204615;28;20054;-79
2023/04/05 13:04:05;;;;;;;10.73;5.28;;;11.50;49.40;;;;;;6204706;28;20046;-80
2023/04/05 13:07:07;;;;;;;7.35;5.07;;;11.70;52.20;;;;;;6204599;28;20064;-76
2023/04/05 13:10:10;;;;;;;7.93;5.10;;;11.90;50.50;;;;;;6204487;28;20046;-78
2023/04/05 13:13:14;;;;;;;8.85;4.97;;;12.10;50.10;;;;;;6189963;28;20046;-77
2023/04/05 13:16:16;;;;;;;;;;;12.20;51.10;;;;;;6190371;28;20050;-79
2023/04/05 13:19:19;;;;;;;7.50;5.00;;;12.40;50.20;;;;;;6160033;28;19933;-79
2023/04/05 13:22:21;;;;;;;8.77;5.15;;;12.50;51.20;;;;;;6153239;29;20051;-79
2023/04/05 13:25:23;;;;;;;8.07;5.18;;;12.60;51.40;;;;;;6153757;29;20055;-80
2023/04/05 13:28:27;;;;;;;8.80;5.30;;;12.60;49.20;;;;;;6153319;28;20051;-79
2023/04/05 13:31:28;;;;;;;8.10;5.38;;;12.70;49.50;;;;;;6194222;28;20482;-79
2023/04/05 13:34:30;;;;;;;10.05;5.20;;;12.80;48.30;;;;;;6200535;28;20042;-78
2023/04/05 13:37:32;;;;;;;7.90;4.63;;;12.90;49.50;;;;;;6202360;28;20416;-77
2023/04/05 13:40:34;;;;;;;7.35;4.90;;;13.40;46.50;;;;;;6188376;28;20396;-77
2023/04/05 13:43:38;;;;;;;10.63;4.68;;;13.30;48.30;;;;;;6177695;28;20138;-75
2023/04/05 13:46:39;;;;;;;8.02;5.05;;;13.40;49.20;;;;;;6178949;28;20385;-78
2023/04/05 13:49:41;;;;;;;7.28;4.85;;;13.80;45.60;;;;;;6177936;28;20053;-79
2023/04/05 13:52:43;;;;;;;7.78;4.70;;;14.10;46.80;;;;;;6176659;28;20055;-76
2023/04/05 13:55:45;;;;;;;6.95;4.85;;;14.20;46.30;;;;;;6175797;28;20051;-75
2023/04/05 13:58:48;;;;;;;7.30;4.60;;;14.40;43.80;;;;;;6176162;28;20047;-76
2023/04/05 14:01:50;;;;;;;7.80;4.93;;;14.90;46.30;;;;;;6177314;28;20460;-77
2023/04/05 14:04:52;;;;;;;6.30;4.60;;;15.20;43.50;;;;;;6175578;28;20199;-78
2023/04/05 14:07:54;;;;;;;7.32;4.53;;;15.40;43.20;;;;;;6175352;28;20515;-80
2023/04/05 14:10:56;;;;;;;8.13;4.35;;;15.40;43.60;;;;;;6178537;28;20058;-80
2023/04/05 14:13:59;;;;;;;6.82;4.70;;;15.70;41.70;;;;;;6181860;28;20054;-79
2023/04/05 14:17:01;;;;;;;6.63;4.40;;;15.40;43.40;;;;;;6176738;28;20374;-79
2023/04/05 14:20:04;;;;;;;7.97;4.47;;;15.20;42.60;;;;;;6175091;28;20062;-78
2023/04/05 14:23:06;;;;;;;7.97;4.20;;;15.60;41.30;;;;;;6176107;28;20047;-79
2023/04/05 14:26:08;;;;;;;6.90;4.32;;;15.70;43.60;;;;;;6180250;28;20054;-79
2023/04/05 14:29:11;;;;;;;6.55;4.25;;;15.70;42.20;;;;;;6192184;28;20057;-81
2023/04/05 14:32:13;;;;;;;6.93;4.38;;;16.30;41.60;;;;;;6174623;28;20186;-81
2023/04/05 14:35:15;;;;;;;6.35;3.90;;;17.00;39.90;;;;;;6182873;28;20054;-79
2023/04/05 14:38:17;;;;;;;6.38;4.47;;;16.50;40.30;;;;;;6190590;28;20058;-80
2023/04/05 14:41:19;;;;;;;6.43;3.85;;;17.40;38.30;;;;;;6189367;28;20047;-76
2023/04/05 14:44:23;;;;;;;5.65;3.90;;;18.20;37.30;;;;;;6195723;28;20061;-78
2023/04/05 14:47:25;;;;;;;5.32;3.53;;;19.30;36.70;;;;;;6199101;28;20091;-75
2023/04/05 14:50:30;;;;;;;7.50;3.40;;;19.90;36.60;;;;;;6181007;28;20050;-76
2023/04/05 14:53:32;;;;;;;6.22;3.63;;;22.30;33.40;;;;;;6180397;28;20054;-74
2023/04/05 14:56:33;;;;;;;5.85;3.38;;;24.30;30.30;;;;;;6176647;28;20054;-77
2023/04/05 14:59:37;;;;;;;6.13;3.63;;;27.00;29.80;;;;;;6161138;28;20055;-77
2023/04/05 15:02:39;;;;;;;5.00;3.40;;;30.80;28.10;;;;;;6182803;28;20054;-78
2023/04/05 15:05:40;;;;;;;5.15;3.33;;;31.80;26.60;;;;;;6186921;28;20396;-78
2023/04/05 15:08:42;;;;;;;4.72;2.97;;;31.70;25.80;;;;;;6175630;28;20054;-76
2023/04/05 15:11:44;;;;;;;;;;;32.30;26.20;;;;;;6176632;28;20051;-76
2023/04/05 15:14:49;;;;;;;4.05;2.85;;;34.00;25.40;;;;;;6176954;28;19933;-76
2023/04/05 15:17:51;;;;;;;4.38;3.10;;;33.50;26.00;;;;;;6174611;28;20059;-77
2023/04/05 15:20:53;;;;;;;;;;;31.80;25.60;;;;;;6174194;28;20669;-76
2023/04/05 15:23:55;;;;;;;6.18;3.63;;;31.70;25.50;;;;;;6177140;28;19926;-80
2023/04/05 15:27:00;;;;;;;5.43;3.05;;;31.60;25.20;;;;;;6198220;28;20137;-78
2023/04/05 15:30:05;;;;;;;5.13;3.38;;;32.30;25.40;;;;;;6189458;28;20055;-78
2023/04/05 15:33:07;;;;;;;4.97;3.35;;;30.80;25.50;;;;;;6180037;28;20377;-78
2023/04/05 15:36:09;;;;;;;4.10;3.00;;;32.20;26.20;;;;;;6180336;28;20062;-78
2023/04/05 15:39:12;;;;;;;4.82;3.00;;;32.00;25.80;;;;;;6183352;28;20467;-79
2023/04/05 15:42:14;;;;;;;4.25;2.75;;;33.00;26.10;;;;;;6167168;28;20052;-77
2023/04/05 15:45:17;;;;;;;5.63;3.28;;;31.40;25.20;;;;;;6165847;28;20047;-76
2023/04/05 15:48:19;;;;;;;4.35;3.00;;;33.10;25.40;;;;;;6170369;28;20061;-76
2023/04/05 15:51:21;;;;;;;4.70;3.10;;;34.10;25.30;;;;;;6182740;28;20136;-78
2023/04/05 15:54:23;;;;;;;4.40;2.95;;;33.60;24.40;;;;;;6192725;28;20050;-76
2023/04/05 15:57:25;;;;;;;;;;;33.60;24.90;;;;;;6173399;28;20047;-75
2023/04/05 16:00:29;;;;;;;5.93;3.40;;;32.70;24.60;;;;;;6172663;28;19928;-74
2023/04/05 16:03:31;;;;;;;4.75;3.20;;;33.20;24.90;;;;;;6172939;28;20055;-74
2023/04/05 16:06:33;;;;;;;7.13;3.20;;;33.90;25.20;;;;;;6172514;28;20515;-75
2023/04/05 16:09:35;;;;;;;;;;;31.80;25.30;;;;;;6173296;28;20050;-74
2023/04/05 16:12:37;;;;;;;5.88;3.20;;;32.80;25.50;;;;;;6171565;28;20266;-78
2023/04/05 16:15:40;;;;;;;5.07;2.70;;;32.60;25.80;;;;;;6171463;28;20412;-76
2023/04/05 16:18:42;;;;;;;4.60;3.03;;;31.30;25.90;;;;;;6172009;28;20560;-79
2023/04/05 16:21:44;;;;;;;5.28;3.05;;;30.70;25.30;;;;;;6177037;28;20058;-74
2023/04/05 16:24:46;;;;;;;4.97;2.80;;;31.30;25.60;;;;;;6182056;28;20415;-75
2023/04/05 16:27:48;;;;;;;4.80;2.90;;;31.40;25.60;;;;;;6174445;28;20059;-76
2023/04/05 16:30:51;;;;;;;4.63;3.03;;;31.70;25.20;;;;;;6173264;28;20465;-74
2023/04/05 16:33:53;;;;;;;5.65;3.20;;;31.80;25.60;;;;;;6161351;28;20066;-81
2023/04/05 16:36:55;;;;;;;4.78;3.20;;;29.10;25.00;;;;;;6172546;28;20046;-78
2023/04/05 16:39:57;;;;;;;4.97;2.90;;;28.70;26.20;;;;;;6173594;28;20046;-78
2023/04/05 16:42:59;;;;;;;5.97;3.40;;;29.40;25.60;;;;;;6171491;28;20058;-79
2023/04/05 16:46:02;;;;;;;6.05;3.60;;;28.20;25.80;;;;;;6170723;28;20066;-81
2023/04/05 16:49:04;;;;;;;6.22;3.53;;;27.80;26.10;;;;;;6172660;28;20054;-78
2023/04/05 16:52:06;;;;;;;4.73;3.50;;;27.20;26.30;;;;;;6170516;28;20055;-79
2023/04/05 16:55:09;;;;;;;5.07;3.50;;;26.60;26.50;;;;;;6172298;28;20511;-78
2023/04/05 16:58:11;;;;;;;6.22;4.25;;;25.00;27.50;;;;;;6172355;28;20057;-74
2023/04/05 17:01:14;;;;;;;5.18;3.63;;;25.20;27.20;;;;;;6159507;28;20058;-75
2023/04/05 17:04:17;;;;;;;5.60;3.60;;;24.30;27.80;;;;;;6172776;28;20054;-75
2023/04/05 17:07:20;;;;;;;6.72;4.10;;;23.70;28.20;;;;;;6171970;28;20066;-77
2023/04/05 17:10:22;;;;;;;8.32;4.40;;;23.60;28.70;;;;;;6172286;28;20050;-79
2023/04/05 17:13:24;;;;;;;7.43;3.40;;;23.20;28.80;;;;;;6191884;28;20481;-79
2023/04/05 17:16:27;;;;;;;4.82;3.30;;;22.70;28.70;;;;;;6171943;28;20061;-79
2023/04/05 17:19:29;;;;;;;6.15;3.83;;;22.10;29.40;;;;;;6181954;28;20066;-77
2023/04/05 17:22:31;;;;;;;6.80;3.97;;;21.40;29.80;;;;;;6187239;28;20047;-76
2023/04/05 17:25:33;;;;;;;7.18;3.80;;;20.70;30.20;;;;;;6170990;28;20049;-77
2023/04/05 17:28:35;;;;;;;6.10;3.47;;;19.90;31.50;;;;;;6161282;28;20055;-81
2023/04/05 17:31:40;;;;;;;6.85;3.97;;;19.60;31.80;;;;;;6164600;28;20058;-77
2023/04/05 17:34:42;;;;;;;5.97;3.22;;;19.20;31.80;;;;;;6169356;28;20394;-77
2023/04/05 17:37:45;;;;;;;6.80;3.97;;;18.30;32.30;;;;;;6171199;28;20479;-77
2023/04/05 17:40:47;;;;;;;6.22;3.90;;;17.60;33.20;;;;;;6174403;28;20553;-77
2023/04/05 17:43:49;;;;;;;8.85;4.40;;;17.30;33.70;;;;;;6169956;28;20066;-76
2023/04/05 17:46:53;;;;;;;7.07;4.40;;;16.90;35.70;;;;;;6166845;28;20050;-80
2023/04/05 17:49:54;;;;;;;8.05;3.90;;;16.60;36.50;;;;;;6165577;28;20046;-77
2023/04/05 17:52:56;;;;;;;6.88;3.80;;;16.30;35.30;;;;;;6165682;28;20171;-77
2023/04/05 17:56:05;;;;;;;9.13;5.32;;;15.10;37.00;;;;;;6160782;28;20062;-78
2023/04/05 17:59:07;;;;;;;8.82;4.90;;;14.10;39.30;;;;;;6158180;28;20280;-76
2023/04/05 18:02:10;;;;;;;9.32;4.47;;;14.50;39.00;;;;;;6161295;28;20054;-79
2023/04/05 18:05:12;;;;;;;7.68;4.15;;;14.30;38.60;;;;;;6160102;28;20693;-75
2023/04/05 18:08:14;;;;;;;8.80;5.20;;;14.10;39.10;;;;;;6166843;28;20055;-78
2023/04/05 18:11:16;;;;;;;8.02;4.78;;;13.80;38.60;;;;;;6163788;28;20054;-79
2023/04/05 18:14:18;;;;;;;7.22;4.75;;;13.60;39.50;;;;;;6174442;28;20287;-75
2023/04/05 18:17:21;;;;;;;7.78;4.95;;;13.00;41.10;;;;;;6172029;28;20059;-78
2023/04/05 18:20:23;;;;;;;8.77;5.38;;;12.90;41.70;;;;;;6168281;28;20086;-79
2023/04/05 18:23:26;;;;;;;9.13;5.50;;;12.40;42.50;;;;;;6173989;28;20069;-78
2023/04/05 18:26:28;;;;;;;8.75;5.82;;;12.20;43.20;;;;;;6174978;28;20058;-77
2023/04/05 18:29:31;;;;;;;7.90;5.18;;;12.20;44.50;;;;;;6147460;29;20058;-79
2023/04/05 18:32:35;;;;;;;6.97;4.30;;;12.00;45.30;;;;;;6163074;28;20050;-77
2023/04/05 18:35:37;;;;;;;6.70;4.05;;;12.00;46.10;;;;;;6180615;28;20055;-77
2023/04/05 18:38:39;;;;;;;7.95;4.18;;;12.20;45.80;;;;;;6178933;28;20047;-76
2023/04/05 18:41:41;;;;;;;8.73;4.40;;;12.20;45.90;;;;;;6186508;28;20755;-76
2023/04/05 18:44:44;;;;;;;6.32;4.18;;;12.20;45.70;;;;;;6182141;28;20127;-76
2023/04/05 18:47:47;;;;;;;8.02;4.10;;;12.00;46.10;;;;;;6191007;28;20445;-78
2023/04/05 18:50:52;;;;;;;9.10;4.30;;;12.00;46.70;;;;;;6190040;28;20055;-78
2023/04/05 18:53:54;;;;;;;8.35;4.60;;;11.90;46.50;;;;;;6172336;28;20054;-78
2023/04/05 18:56:57;;;;;;;8.05;4.50;;;11.70;47.60;;;;;;6187784;28;20146;-76
2023/04/05 18:59:59;;;;;;;8.02;4.18;;;11.40;47.20;;;;;;6187100;28;20078;-76
2023/04/05 19:03:02;;;;;;;8.27;4.13;;;11.30;48.60;;;;;;6187281;28;20054;-75
2023/04/05 19:06:04;;;;;;;7.53;4.35;;;11.30;48.90;;;;;;6186032;28;20376;-79
2023/04/05 19:09:10;;;;;;;7.45;4.05;;;11.20;48.90;;;;;;6176340;28;20051;-77
2023/04/05 19:12:12;;;;;;;7.85;4.55;;;11.20;49.30;;;;;;6176631;28;20479;-77
2023/04/05 19:15:15;;;;;;;9.00;5.28;;;11.10;50.20;;;;;;6178875;28;20054;-73
2023/04/05 19:18:20;;;;;;;8.20;4.60;;;11.00;50.70;;;;;;6179294;28;20189;-77
2023/04/05 19:21:23;;;;;;;7.35;4.57;;;10.90;50.80;;;;;;6175227;28;20050;-78
2023/04/05 19:24:26;;;;;;;8.75;5.18;;;10.70;50.70;;;;;;6172647;28;20082;-78
2023/04/05 19:27:31;;;;;;;13.80;6.97;;;10.70;51.30;;;;;;6175418;28;20381;-75
2023/04/05 19:30:33;;;;;;;13.75;7.28;;;10.60;51.50;;;;;;6173004;28;20042;-80
2023/04/05 19:33:37;;;;;;;13.13;6.72;;;10.50;51.80;;;;;;6172292;28;20141;-80
2023/04/05 19:36:39;;;;;;;10.88;6.00;;;10.50;51.50;;;;;;6173539;28;20058;-78
2023/04/05 19:39:41;;;;;;;9.73;5.60;;;10.30;50.90;;;;;;6173714;28;20059;-80
2023/04/05 19:42:46;;;;;;;8.70;5.50;;;10.20;51.50;;;;;;6171534;28;20062;-77
2023/04/05 19:46:11;;;;;;;9.52;5.63;;;10.00;51.40;;;;;;6170841;28;20051;-79
2023/04/05 19:49:15;;;;;;;8.77;5.40;;;10.00;51.50;;;;;;6171649;28;20819;-79
2023/04/05 19:52:37;;;;;;;9.07;5.15;;;10.00;52.60;;;;;;6172084;28;20095;-81
2023/04/05 19:55:39;;;;;;;8.35;4.80;;;9.80;53.30;;;;;;6147331;29;20508;-78
2023/04/05 19:58:42;;;;;;;7.95;4.80;;;9.70;53.00;;;;;;6156039;28;20049;-76
2023/04/05 20:01:46;;;;;;;6.93;4.32;;;9.60;52.90;;;;;;6171885;28;20055;-80
2023/04/05 20:04:49;;;;;;;;;;;9.60;53.20;;;;;;6173340;28;20128;-81
2023/04/05 20:07:50;;;;;;;7.63;4.63;;;9.50;53.10;;;;;;6156710;28;19922;-77
2023/04/05 20:10:52;;;;;;;7.45;4.57;;;9.40;52.80;;;;;;6174517;28;20061;-78
2023/04/05 20:13:56;;;;;;;8.60;4.40;;;9.30;53.00;;;;;;6172583;28;20057;-79
2023/04/05 20:16:59;;;;;;;8.10;4.50;;;9.30;53.10;;;;;;6180962;28;20101;-78
2023/04/05 20:20:02;;;;;;;8.85;5.15;;;9.20;53.00;;;;;;6185533;28;20051;-79
2023/04/05 20:23:06;;;;;;;7.45;4.10;;;9.10;53.10;;;;;;6180328;28;20091;-81
2023/04/05 20:26:08;;;;;;;9.48;4.50;;;9.10;53.10;;;;;;6165282;29;20054;-77
2023/04/05 20:29:14;;;;;;;7.35;4.20;;;9.00;53.70;;;;;;6178795;28;20055;-80
2023/04/05 20:32:18;;;;;;;7.22;4.50;;;9.00;54.00;;;;;;6191172;28;20063;-80
2023/04/05 20:35:33;;;;;;;9.07;4.65;;;8.90;53.70;;;;;;6197525;28;20055;-78
2023/04/05 20:38:36;;;;;;;7.70;4.68;;;8.80;54.10;;;;;;6185579;28;20481;-78
2023/04/05 20:41:38;;;;;;;7.93;4.83;;;8.80;54.60;;;;;;6173762;28;20053;-77
2023/04/05 20:44:40;;;;;;;7.25;3.80;;;8.60;55.30;;;;;;6173227;28;20055;-77
2023/04/05 20:47:42;;;;;;;5.75;4.00;;;8.20;56.20;;;;;;6174444;28;20055;-79
2023/04/05 20:50:45;;;;;;;6.97;4.10;;;7.80;57.30;;;;;;6178232;28;20488;-79
2023/04/05 20:53:46;;;;;;;8.32;4.78;;;7.20;57.70;;;;;;6184054;28;20134;-81
2023/04/05 20:56:48;;;;;;;8.68;4.95;;;7.00;56.30;;;;;;6187859;28;20500;-77
2023/04/05 20:59:51;;;;;;;8.65;4.80;;;7.10;57.10;;;;;;6173649;28;20058;-77
2023/04/05 21:02:53;;;;;;;8.97;5.30;;;7.20;58.30;;;;;;6177838;28;20051;-78
2023/04/05 21:05:57;;;;;;;9.90;5.68;;;7.30;58.40;;;;;;6193472;28;20049;-81
2023/04/05 21:08:58;;;;;;;11.60;6.03;;;7.40;58.10;;;;;;6193213;28;20051;-77
2023/04/05 21:12:00;;;;;;;11.75;6.85;;;7.40;58.40;;;;;;6180433;28;20054;-82
2023/04/05 21:15:02;;;;;;;14.00;6.70;;;7.40;58.50;;;;;;6156008;29;20123;-78
2023/04/05 21:18:07;;;;;;;12.73;7.00;;;7.40;58.70;;;;;;6165248;28;20057;-78
2023/04/05 21:21:10;;;;;;;12.80;7.47;;;7.50;59.70;;;;;;6190311;28;20058;-78
2023/04/05 21:24:11;;;;;;;9.93;6.72;;;7.30;59.50;;;;;;6197255;28;20057;-81
2023/04/05 21:27:13;;;;;;;12.80;7.55;;;7.30;60.40;;;;;;6194727;28;20142;-80
2023/04/05 21:30:17;;;;;;;9.68;6.35;;;7.40;60.50;;;;;;6199346;28;20050;-81
2023/04/05 21:33:19;;;;;;;10.90;6.63;;;7.40;61.00;;;;;;6199874;28;20130;-80
2023/04/05 21:36:23;;;;;;;11.15;5.90;;;7.40;61.30;;;;;;6201962;28;20110;-79
2023/04/05 21:39:25;;;;;;;9.68;5.50;;;7.30;61.50;;;;;;6198589;28;20102;-79
2023/04/05 21:42:26;;;;;;;10.82;6.38;;;7.40;61.50;;;;;;6190256;28;20075;-77
2023/04/05 21:45:28;;;;;;;9.38;5.82;;;7.30;61.10;;;;;;6179880;28;20511;-78
2023/04/05 21:48:30;;;;;;;10.77;5.80;;;7.30;61.30;;;;;;6151852;28;20043;-77
2023/04/05 21:51:33;;;;;;;9.95;5.90;;;7.30;60.60;;;;;;6178390;28;20485;-78
2023/04/05 21:54:35;;;;;;;7.50;5.25;;;7.30;60.70;;;;;;6179371;28;20053;-76
2023/04/05 21:57:37;;;;;;;8.55;5.13;;;7.20;61.80;;;;;;6177596;28;20050;-78
